sensor_id;sensor_type;location;lat;lon;timestamp;P1;durP1;ratioP1;P2;durP2;ratioP2
14143;SDS011;7152;48.348;10.980;2024-01-30T16:38:56;7.77;;;4.90;;
14143;SDS011;7152;48.348;10.980;2024-01-30T16:41:24;9.20;;;5.70;;
14143;SDS011;7152;48.348;10.980;2024-01-30T16:43:51;6.40;;;5.80;;
14143;SDS011;7152;48.348;10.980;2024-01-30T16:46:17;5.40;;;4.90;;
14143;SDS011;7152;48.348;10.980;2024-01-30T16:48:43;8.67;;;5.60;;
14143;SDS011;7152;48.348;10.980;2024-01-30T16:51:08;6.83;;;5.03;;
14143;SDS011;7152;48.348;10.980;2024-01-30T16:53:34;5.93;;;4.67;;
14143;SDS011;7152;48.348;10.980;2024-01-30T16:56:01;6.10;;;4.67;;
14143;SDS011;7152;48.348;10.980;2024-01-30T16:58:27;7.97;;;4.80;;
14143;SDS011;7152;48.348;10.980;2024-01-30T17:00:53;7.07;;;4.83;;
14143;SDS011;7152;48.348;10.980;2024-01-30T17:03:19;5.50;;;4.57;;
14143;SDS011;7152;48.348;10.980;2024-01-30T17:05:44;5.90;;;4.70;;
14143;SDS011;7152;48.348;10.980;2024-01-30T17:08:10;7.13;;;5.27;;
14143;SDS011;7152;48.348;10.980;2024-01-30T17:10:36;9.07;;;5.53;;
14143;SDS011;7152;48.348;10.980;2024-01-30T17:13:02;5.67;;;4.97;;
14143;SDS011;7152;48.348;10.980;2024-01-30T17:15:28;7.43;;;6.10;;
14143;SDS011;7152;48.348;10.980;2024-01-30T17:17:54;10.47;;;6.37;;
14143;SDS011;7152;48.348;10.980;2024-01-30T17:20:20;8.87;;;7.07;;
14143;SDS011;7152;48.348;10.980;2024-01-30T17:22:46;14.10;;;12.33;;
14143;SDS011;7152;48.348;10.980;2024-01-30T17:25:12;17.37;;;12.17;;
14143;SDS011;7152;48.348;10.980;2024-01-30T17:27:39;15.97;;;13.37;;
14143;SDS011;7152;48.348;10.980;2024-01-30T17:30:05;15.93;;;13.37;;
14143;SDS011;7152;48.348;10.980;2024-01-30T17:32:31;20.57;;;14.13;;
14143;SDS011;7152;48.348;10.980;2024-01-30T17:34:57;14.17;;;11.90;;
14143;SDS011;7152;48.348;10.980;2024-01-30T17:37:23;14.20;;;12.43;;
14143;SDS011;7152;48.348;10.980;2024-01-30T17:39:49;13.67;;;12.33;;
14143;SDS011;7152;48.348;10.980;2024-01-30T17:42:15;17.13;;;13.60;;
14143;SDS011;7152;48.348;10.980;2024-01-30T17:44:44;17.23;;;15.20;;
14143;SDS011;7152;48.348;10.980;2024-01-30T17:47:10;14.73;;;13.10;;
14143;SDS011;7152;48.348;10.980;2024-01-30T17:49:36;13.87;;;12.43;;
14143;SDS011;7152;48.348;10.980;2024-01-30T17:52:02;15.87;;;14.17;;
14143;SDS011;7152;48.348;10.980;2024-01-30T17:54:28;15.30;;;13.27;;
14143;SDS011;7152;48.348;10.980;2024-01-30T17:56:54;16.00;;;13.70;;
14143;SDS011;7152;48.348;10.980;2024-01-30T17:59:20;16.67;;;13.07;;
14143;SDS011;7152;48.348;10.980;2024-01-30T18:01:47;14.60;;;13.07;;
14143;SDS011;7152;48.348;10.980;2024-01-30T18:04:14;19.83;;;13.87;;
14143;SDS011;7152;48.348;10.980;2024-01-30T18:06:48;14.03;;;12.53;;
14143;SDS011;7152;48.348;10.980;2024-01-30T18:09:21;15.17;;;13.17;;
14143;SDS011;7152;48.348;10.980;2024-01-30T18:11:49;15.30;;;13.07;;
14143;SDS011;7152;48.348;10.980;2024-01-30T18:14:15;16.37;;;13.17;;
14143;SDS011;7152;48.348;10.980;2024-01-30T18:16:41;15.53;;;12.27;;
14143;SDS011;7152;48.348;10.980;2024-01-30T18:19:07;13.53;;;12.13;;
14143;SDS011;7152;48.348;10.980;2024-01-30T18:21:33;13.63;;;12.17;;
14143;SDS011;7152;48.348;10.980;2024-01-30T18:23:59;15.03;;;13.00;;
14143;SDS011;7152;48.348;10.980;2024-01-30T18:26:25;16.30;;;13.27;;
14143;SDS011;7152;48.348;10.980;2024-01-30T18:28:52;15.50;;;13.90;;
14143;SDS011;7152;48.348;10.980;2024-01-30T18:31:22;16.70;;;14.87;;
14143;SDS011;7152;48.348;10.980;2024-01-30T18:33:48;17.90;;;15.73;;
14143;SDS011;7152;48.348;10.980;2024-01-30T18:36:22;17.37;;;15.53;;
14143;SDS011;7152;48.348;10.980;2024-01-30T18:38:49;25.90;;;20.53;;
14143;SDS011;7152;48.348;10.980;2024-01-30T18:41:16;26.17;;;20.23;;
14143;SDS011;7152;48.348;10.980;2024-01-30T18:43:43;27.70;;;22.63;;
14143;SDS011;7152;48.348;10.980;2024-01-30T18:46:09;29.20;;;21.83;;
14143;SDS011;7152;48.348;10.980;2024-01-30T18:48:36;27.73;;;21.87;;
14143;SDS011;7152;48.348;10.980;2024-01-30T18:51:05;26.63;;;21.60;;
14143;SDS011;7152;48.348;10.980;2024-01-30T18:53:31;28.20;;;21.47;;
14143;SDS011;7152;48.348;10.980;2024-01-30T18:55:58;21.07;;;17.90;;
14143;SDS011;7152;48.348;10.980;2024-01-30T18:58:24;22.13;;;17.47;;
14143;SDS011;7152;48.348;10.980;2024-01-30T19:00:50;20.80;;;16.70;;
14143;SDS011;7152;48.348;10.980;2024-01-30T19:03:16;17.40;;;15.50;;
14143;SDS011;7152;48.348;10.980;2024-01-30T19:05:43;18.80;;;14.97;;
14143;SDS011;7152;48.348;10.980;2024-01-30T19:08:09;16.60;;;14.33;;
14143;SDS011;7152;48.348;10.980;2024-01-30T19:10:36;16.47;;;14.73;;
14143;SDS011;7152;48.348;10.980;2024-01-30T19:13:02;17.87;;;14.67;;
14143;SDS011;7152;48.348;10.980;2024-01-30T19:15:31;17.73;;;14.67;;
14143;SDS011;7152;48.348;10.980;2024-01-30T19:17:57;15.27;;;13.67;;
14143;SDS011;7152;48.348;10.980;2024-01-30T19:20:25;17.73;;;15.33;;
14143;SDS011;7152;48.348;10.980;2024-01-30T19:22:51;19.57;;;15.43;;
14143;SDS011;7152;48.348;10.980;2024-01-30T19:25:17;19.40;;;15.75;;
14143;SDS011;7152;48.348;10.980;2024-01-30T19:27:43;15.90;;;14.03;;
14143;SDS011;7152;48.348;10.980;2024-01-30T19:30:09;17.23;;;14.10;;
14143;SDS011;7152;48.348;10.980;2024-01-30T19:32:35;16.77;;;13.87;;
14143;SDS011;7152;48.348;10.980;2024-01-30T19:35:02;15.90;;;12.83;;
14143;SDS011;7152;48.348;10.980;2024-01-30T19:37:28;15.50;;;12.50;;
14143;SDS011;7152;48.348;10.980;2024-01-30T19:39:57;14.40;;;12.70;;
14143;SDS011;7152;48.348;10.980;2024-01-30T19:42:24;14.90;;;12.13;;
14143;SDS011;7152;48.348;10.980;2024-01-30T19:44:50;15.03;;;11.87;;
14143;SDS011;7152;48.348;10.980;2024-01-30T19:47:16;14.50;;;11.60;;
14143;SDS011;7152;48.348;10.980;2024-01-30T19:49:42;13.97;;;11.87;;
14143;SDS011;7152;48.348;10.980;2024-01-30T19:52:08;12.63;;;11.30;;
14143;SDS011;7152;48.348;10.980;2024-01-30T19:54:35;14.23;;;11.43;;
14143;SDS011;7152;48.348;10.980;2024-01-30T19:57:04;16.27;;;12.50;;
14143;SDS011;7152;48.348;10.980;2024-01-30T19:59:31;13.50;;;12.10;;
14143;SDS011;7152;48.348;10.980;2024-01-30T20:01:57;14.17;;;12.33;;
14143;SDS011;7152;48.348;10.980;2024-01-30T20:04:23;14.27;;;12.50;;
14143;SDS011;7152;48.348;10.980;2024-01-30T20:06:50;13.83;;;12.03;;
14143;SDS011;7152;48.348;10.980;2024-01-30T20:09:15;13.77;;;12.27;;
14143;SDS011;7152;48.348;10.980;2024-01-30T20:11:41;13.33;;;11.93;;
14143;SDS011;7152;48.348;10.980;2024-01-30T20:14:07;14.10;;;11.20;;
14143;SDS011;7152;48.348;10.980;2024-01-30T20:16:36;12.07;;;10.67;;
14143;SDS011;7152;48.348;10.980;2024-01-30T20:19:03;14.33;;;11.50;;
14143;SDS011;7152;48.348;10.980;2024-01-30T20:21:30;12.93;;;11.63;;
14143;SDS011;7152;48.348;10.980;2024-01-30T20:23:55;13.50;;;11.93;;
14143;SDS011;7152;48.348;10.980;2024-01-30T20:26:22;12.47;;;11.10;;
14143;SDS011;7152;48.348;10.980;2024-01-30T20:28:49;12.80;;;11.47;;
14143;SDS011;7152;48.348;10.980;2024-01-30T20:31:22;14.20;;;10.27;;
14143;SDS011;7152;48.348;10.980;2024-01-30T20:33:49;13.10;;;11.23;;
14143;SDS011;7152;48.348;10.980;2024-01-30T20:36:16;14.97;;;11.10;;
14143;SDS011;7152;48.348;10.980;2024-01-30T20:38:43;12.40;;;11.10;;
14143;SDS011;7152;48.348;10.980;2024-01-30T20:41:09;13.63;;;11.17;;
14143;SDS011;7152;48.348;10.980;2024-01-30T20:43:37;13.77;;;11.53;;
14143;SDS011;7152;48.348;10.980;2024-01-30T20:46:03;11.80;;;10.60;;
14143;SDS011;7152;48.348;10.980;2024-01-30T20:48:31;14.17;;;11.40;;
14143;SDS011;7152;48.348;10.980;2024-01-30T20:50:57;12.67;;;11.37;;
14143;SDS011;7152;48.348;10.980;2024-01-30T20:53:23;13.50;;;11.33;;
14143;SDS011;7152;48.348;10.980;2024-01-30T20:55:50;11.87;;;10.67;;
14143;SDS011;7152;48.348;10.980;2024-01-30T20:58:16;12.50;;;10.73;;
14143;SDS011;7152;48.348;10.980;2024-01-30T21:00:42;12.33;;;10.20;;
14143;SDS011;7152;48.348;10.980;2024-01-30T21:03:08;14.17;;;10.97;;
14143;SDS011;7152;48.348;10.980;2024-01-30T21:05:38;14.03;;;11.03;;
14143;SDS011;7152;48.348;10.980;2024-01-30T21:08:04;12.70;;;11.03;;
14143;SDS011;7152;48.348;10.980;2024-01-30T21:10:30;14.80;;;11.23;;
14143;SDS011;7152;48.348;10.980;2024-01-30T21:12:56;14.47;;;11.27;;
14143;SDS011;7152;48.348;10.980;2024-01-30T21:15:21;12.53;;;10.17;;
14143;SDS011;7152;48.348;10.980;2024-01-30T21:17:47;12.57;;;11.07;;
14143;SDS011;7152;48.348;10.980;2024-01-30T21:20:13;12.50;;;10.70;;
14143;SDS011;7152;48.348;10.980;2024-01-30T21:22:40;11.40;;;10.07;;
14143;SDS011;7152;48.348;10.980;2024-01-30T21:25:06;11.37;;;9.93;;
14143;SDS011;7152;48.348;10.980;2024-01-30T21:27:32;14.63;;;11.47;;
14143;SDS011;7152;48.348;10.980;2024-01-30T21:29:58;12.73;;;10.93;;
14143;SDS011;7152;48.348;10.980;2024-01-30T21:32:24;14.63;;;11.53;;
14143;SDS011;7152;48.348;10.980;2024-01-30T21:34:51;19.60;;;14.27;;
14143;SDS011;7152;48.348;10.980;2024-01-30T21:37:17;23.20;;;16.13;;
14143;SDS011;7152;48.348;10.980;2024-01-30T21:39:42;22.47;;;16.63;;
14143;SDS011;7152;48.348;10.980;2024-01-30T21:42:08;18.80;;;15.10;;
14143;SDS011;7152;48.348;10.980;2024-01-30T21:44:34;20.50;;;15.47;;
14143;SDS011;7152;48.348;10.980;2024-01-30T21:47:00;18.90;;;14.53;;
14143;SDS011;7152;48.348;10.980;2024-01-30T21:49:26;19.17;;;14.50;;
14143;SDS011;7152;48.348;10.980;2024-01-30T21:51:53;20.83;;;16.03;;
14143;SDS011;7152;48.348;10.980;2024-01-30T21:54:19;29.90;;;19.60;;
14143;SDS011;7152;48.348;10.980;2024-01-30T21:56:44;30.67;;;20.60;;
14143;SDS011;7152;48.348;10.980;2024-01-30T21:59:10;34.87;;;20.60;;
14143;SDS011;7152;48.348;10.980;2024-01-30T22:01:36;13.27;;;11.77;;
14143;SDS011;7152;48.348;10.980;2024-01-30T22:04:02;21.03;;;15.03;;
14143;SDS011;7152;48.348;10.980;2024-01-30T22:06:28;18.47;;;14.10;;
14143;SDS011;7152;48.348;10.980;2024-01-30T22:08:55;22.37;;;15.77;;
14143;SDS011;7152;48.348;10.980;2024-01-30T22:11:21;29.50;;;16.67;;
14143;SDS011;7152;48.348;10.980;2024-01-30T22:13:46;19.93;;;12.63;;
14143;SDS011;7152;48.348;10.980;2024-01-30T22:16:13;12.60;;;10.77;;
14143;SDS011;7152;48.348;10.980;2024-01-30T22:18:39;12.93;;;11.27;;
14143;SDS011;7152;48.348;10.980;2024-01-30T22:21:06;13.67;;;10.43;;
14143;SDS011;7152;48.348;10.980;2024-01-30T22:23:35;11.13;;;9.33;;
14143;SDS011;7152;48.348;10.980;2024-01-30T22:26:01;11.37;;;9.67;;
14143;SDS011;7152;48.348;10.980;2024-01-30T22:28:27;10.13;;;9.07;;
14143;SDS011;7152;48.348;10.980;2024-01-30T22:30:53;12.27;;;10.07;;
14143;SDS011;7152;48.348;10.980;2024-01-30T22:33:19;12.90;;;9.77;;
14143;SDS011;7152;48.348;10.980;2024-01-30T22:35:46;19.47;;;12.83;;
14143;SDS011;7152;48.348;10.980;2024-01-30T22:38:12;13.43;;;10.60;;
14143;SDS011;7152;48.348;10.980;2024-01-30T22:40:38;11.60;;;9.63;;
14143;SDS011;7152;48.348;10.980;2024-01-30T22:43:03;11.33;;;9.43;;
